Time;durP1;ratioP1;P1;durP2;ratioP2;P2;SDS_P1;SDS_P2;PMS_P1;PMS_P2;Temp;Humidity;BMP_temperature;BMP_pressure;BME280_temperature;BME280_humidity;BME280_pressure;Samples;Min_cycle;Max_cycle;Signal;HPM_P1;HPM_P2
2023/11/30 00:00:40;;;;;;;8.00;3.60;;;;;;;-4.16;100.00;99502.71;105401;1256;61695;-53
2023/11/30 00:03:08;;;;;;;7.50;3.10;;;;;;;-4.15;100.00;99511.83;105454;1257;60468;-53
2023/11/30 00:05:35;;;;;;;8.60;3.50;;;;;;;-4.15;100.00;99515.69;105483;1263;73985;-53
2023/11/30 00:08:03;;;;;;;8.30;3.50;;;;;;;-4.15;100.00;99520.07;105437;1256;65680;-53
2023/11/30 00:10:31;;;;;;;8.30;4.80;;;;;;;-4.16;100.00;99517.43;105562;1256;70394;-53
2023/11/30 00:12:58;;;;;;;9.20;3.70;;;;;;;-4.16;100.00;99520.76;105397;1258;60370;-53
2023/11/30 00:15:26;;;;;;;10.40;4.50;;;;;;;-4.16;100.00;99523.73;105557;1253;60443;-53
2023/11/30 00:17:53;;;;;;;10.80;4.80;;;;;;;-4.18;100.00;99524.80;105858;1258;72640;-52
2023/11/30 00:20:21;;;;;;;8.30;3.90;;;;;;;-4.21;100.00;99524.59;106026;1257;67586;-53
2023/11/30 00:22:48;;;;;;;11.50;4.80;;;;;;;-4.25;100.00;99532.45;105340;1257;72664;-53
2023/11/30 00:25:16;;;;;;;10.30;5.00;;;;;;;-4.29;100.00;99533.65;105444;1256;62683;-53
2023/11/30 00:27:43;;;;;;;10.90;4.90;;;;;;;-4.33;100.00;99530.45;105554;1254;60505;-53
2023/11/30 00:30:11;;;;;;;9.70;4.70;;;;;;;-4.37;100.00;99534.11;105489;1253;72550;-53
2023/11/30 00:32:39;;;;;;;8.30;4.10;;;;;;;-4.41;100.00;99538.27;105787;1259;65802;-53
2023/11/30 00:35:07;;;;;;;8.60;4.50;;;;;;;-4.43;100.00;99541.08;105558;1256;71616;-54
2023/11/30 00:37:35;;;;;;;10.20;3.70;;;;;;;-4.44;100.00;99543.52;105660;1256;60611;-53
2023/11/30 00:40:03;;;;;;;8.50;4.60;;;;;;;-4.44;100.00;99546.85;105464;1256;60463;-53
2023/11/30 00:42:31;;;;;;;11.50;4.90;;;;;;;-4.43;100.00;99540.02;105884;1256;73932;-53
2023/11/30 00:44:59;;;;;;;7.40;4.30;;;;;;;-4.42;100.00;99541.25;108775;1256;67809;-54
2023/11/30 00:47:27;;;;;;;8.10;4.30;;;;;;;-4.41;100.00;99541.77;105508;1262;71277;-53
2023/11/30 00:49:54;;;;;;;11.70;5.10;;;;;;;-4.40;100.00;99545.11;105350;1255;60726;-53
2023/11/30 00:52:22;;;;;;;9.50;4.70;;;;;;;-4.41;100.00;99547.56;106004;1256;60516;-53
2023/11/30 00:54:49;;;;;;;10.60;4.90;;;;;;;-4.42;100.00;99550.02;105391;1265;74283;-52
2023/11/30 00:57:17;;;;;;;9.90;4.70;;;;;;;-4.44;100.00;99546.33;105321;1258;65808;-52
2023/11/30 00:59:45;;;;;;;8.90;4.70;;;;;;;-4.46;100.00;99551.73;106368;1256;71365;-52
2023/11/30 01:02:12;;;;;;;7.20;3.70;;;;;;;-4.48;100.00;99548.55;105434;1262;60550;-53
2023/11/30 01:04:42;;;;;;;8.30;3.90;;;;;;;-4.50;100.00;99551.33;106357;1251;60432;-53
2023/11/30 01:07:09;;;;;;;9.50;3.70;;;;;;;-4.50;100.00;99559.05;105382;1259;74293;-52
2023/11/30 01:09:38;;;;;;;8.50;3.40;;;;;;;-4.50;100.00;99558.69;105433;1254;65160;-53
2023/11/30 01:12:06;;;;;;;10.40;4.70;;;;;;;-4.49;100.00;99566.58;107983;1256;73629;-52
2023/11/30 01:14:34;;;;;;;9.10;3.90;;;;;;;-4.47;100.00;99566.95;105695;1257;60456;-52
2023/11/30 01:17:01;;;;;;;9.00;4.40;;;;;;;-4.46;100.00;99572.58;105474;1257;61169;-52
2023/11/30 01:19:29;;;;;;;12.50;5.00;;;;;;;-4.46;100.00;99572.92;105694;1256;73947;-52
2023/11/30 01:21:56;;;;;;;10.00;4.00;;;;;;;-4.47;100.00;99572.91;105414;1256;67020;-55
2023/11/30 01:24:24;;;;;;;10.10;4.80;;;;;;;-4.49;100.00;99574.46;106248;1256;72054;-52
2023/11/30 01:26:52;;;;;;;10.00;4.90;;;;;;;-4.52;100.00;99577.95;105462;1257;60941;-52
2023/11/30 01:29:19;;;;;;;10.90;5.60;;;;;;;-4.55;100.00;99580.02;105467;1260;62415;-53
2023/11/30 01:31:47;;;;;;;10.60;5.40;;;;;;;-4.58;100.00;99581.73;105490;1257;73754;-53
2023/11/30 01:34:14;;;;;;;12.40;5.10;;;;;;;-4.59;100.00;99592.08;105582;1256;65650;-50
2023/11/30 01:36:42;;;;;;;11.50;5.80;;;;;;;-4.61;100.00;99598.17;105480;1257;71845;-52
2023/11/30 01:39:09;;;;;;;8.90;4.00;;;;;;;-4.62;100.00;99599.58;105521;1257;61739;-52
2023/11/30 01:41:37;;;;;;;9.70;4.00;;;;;;;-4.62;100.00;99601.33;109022;1251;59599;-53
2023/11/30 01:44:05;;;;;;;10.80;4.30;;;;;;;-4.61;100.00;99608.35;109134;1251;74425;-53
2023/11/30 01:46:33;;;;;;;8.20;3.40;;;;;;;-4.59;100.00;99616.21;109150;1256;67189;-53
2023/11/30 01:49:00;;;;;;;11.80;5.20;;;;;;;-4.57;100.00;99615.90;109069;1251;72732;-53
2023/11/30 01:51:28;;;;;;;8.60;4.40;;;;;;;-4.54;100.00;99619.61;109123;1251;61002;-53
2023/11/30 01:53:56;;;;;;;9.60;4.80;;;;;;;-4.51;100.00;99622.62;108969;1251;59090;-53
2023/11/30 01:56:24;;;;;;;9.70;5.30;;;;;;;-4.49;100.00;99619.99;109140;1253;73721;-53
2023/11/30 01:58:51;;;;;;;13.80;6.90;;;;;;;-4.49;100.00;99623.33;109009;1258;65671;-53
2023/11/30 02:01:19;;;;;;;12.70;6.20;;;;;;;-4.49;100.00;99624.73;109015;1255;73470;-53
2023/11/30 02:03:47;;;;;;;8.50;5.30;;;;;;;-4.50;100.00;99628.56;108691;1251;60601;-53
2023/11/30 02:06:16;;;;;;;14.10;6.40;;;;;;;-4.51;100.00;99634.35;105436;1259;60449;-52
2023/11/30 02:08:43;;;;;;;9.80;5.70;;;;;;;-4.52;100.00;99636.27;109084;1251;73892;-53
2023/11/30 02:11:11;;;;;;;10.20;5.10;;;;;;;-4.54;100.00;99635.20;109055;1255;67542;-53
2023/11/30 02:13:38;;;;;;;12.30;5.70;;;;;;;-4.57;100.00;99636.38;109053;1251;72678;-53
2023/11/30 02:16:06;;;;;;;9.90;5.80;;;;;;;-4.60;100.00;99639.52;109104;1254;62358;-53
2023/11/30 02:18:35;;;;;;;11.50;6.80;;;;;;;-4.62;100.00;99640.90;109116;1254;60470;-53
2023/11/30 02:21:03;;;;;;;14.10;6.10;;;;;;;-4.63;100.00;99640.35;109188;1251;73232;-53
2023/11/30 02:23:30;;;;;;;9.80;5.60;;;;;;;-4.63;100.00;99651.75;109014;1251;65785;-53
2023/11/30 02:25:58;;;;;;;14.00;6.00;;;;;;;-4.61;100.00;99650.20;108269;1257;70081;-50
2023/11/30 02:28:25;;;;;;;11.50;6.10;;;;;;;-4.58;100.00;99652.84;105325;1259;60932;-52
2023/11/30 02:30:52;;;;;;;10.90;5.50;;;;;;;-4.55;100.00;99656.90;105426;1258;61120;-53
2023/11/30 02:33:20;;;;;;;9.60;4.70;;;;;;;-4.52;100.00;99655.00;105472;1257;72632;-52
2023/11/30 02:35:47;;;;;;;9.70;5.70;;;;;;;-4.51;100.00;99657.11;105985;1251;66406;-52
2023/11/30 02:38:15;;;;;;;10.60;5.60;;;;;;;-4.50;100.00;99656.41;105462;1257;72690;-52
2023/11/30 02:40:42;;;;;;;7.80;4.80;;;;;;;-4.50;100.00;99658.34;105336;1255;60358;-52
2023/11/30 02:43:10;;;;;;;12.20;5.80;;;;;;;-4.50;100.00;99659.40;105342;1257;60115;-53
2023/11/30 02:45:37;;;;;;;10.30;6.40;;;;;;;-4.52;100.00;99657.98;105243;1256;72433;-53
2023/11/30 02:48:05;;;;;;;12.00;6.70;;;;;;;-4.54;100.00;99664.63;105306;1256;66137;-53
2023/11/30 02:50:32;;;;;;;11.60;6.30;;;;;;;-4.58;100.00;99667.55;105463;1254;72804;-53
2023/11/30 02:53:00;;;;;;;13.00;6.40;;;;;;;-4.62;100.00;99665.06;105346;1260;60524;-52
2023/11/30 02:55:27;;;;;;;15.30;7.30;;;;;;;-4.65;100.00;99664.31;105455;1254;60425;-53
2023/11/30 02:57:57;;;;;;;14.10;6.60;;;;;;;-4.68;100.00;99668.49;105367;1251;73110;-54
2023/11/30 03:00:24;;;;;;;12.40;6.00;;;;;;;-4.70;100.00;99670.75;105383;1259;65772;-54
2023/11/30 03:02:52;;;;;;;11.70;6.00;;;;;;;-4.72;100.00;99673.86;105533;1254;72745;-53
2023/11/30 03:05:19;;;;;;;11.80;6.50;;;;;;;-4.74;100.00;99674.54;105421;1254;60513;-54
2023/11/30 03:07:47;;;;;;;9.20;5.70;;;;;;;-4.75;100.00;99674.70;105471;1257;60442;-53
2023/11/30 03:10:14;;;;;;;13.10;6.50;;;;;;;-4.76;100.00;99676.79;105326;1254;74287;-53
2023/11/30 03:12:42;;;;;;;9.40;5.80;;;;;;;-4.76;100.00;99680.30;105503;1256;67027;-54
2023/11/30 03:15:09;;;;;;;11.20;5.00;;;;;;;-4.75;100.00;99684.67;105172;1255;72648;-52
2023/11/30 03:17:38;;;;;;;9.50;5.40;;;;;;;-4.73;100.00;99688.56;105641;1256;60466;-52
2023/11/30 03:20:07;;;;;;;10.70;5.20;;;;;;;-4.71;100.00;99689.29;106078;1256;60385;-52
2023/11/30 03:22:34;;;;;;;10.40;5.30;;;;;;;-4.70;100.00;99689.84;107485;1252;73976;-53
2023/11/30 03:25:02;;;;;;;10.30;5.70;;;;;;;-4.68;100.00;99693.19;105389;1257;67481;-53
2023/11/30 03:27:30;;;;;;;14.00;5.50;;;;;;;-4.68;100.00;99693.52;106351;1256;73190;-53
2023/11/30 03:29:57;;;;;;;12.30;6.00;;;;;;;-4.69;100.00;99691.95;105481;1254;60547;-52
2023/11/30 03:32:25;;;;;;;9.30;4.80;;;;;;;-4.70;100.00;99693.69;105403;1252;62226;-52
2023/11/30 03:34:52;;;;;;;9.30;5.40;;;;;;;-4.72;100.00;99689.46;105311;1258;72818;-53
2023/11/30 03:37:19;;;;;;;13.30;6.10;;;;;;;-4.73;100.00;99693.46;105470;1257;67229;-52
2023/11/30 03:39:47;;;;;;;9.70;5.20;;;;;;;-4.77;100.00;99695.52;105442;1261;71433;-52
2023/11/30 03:42:15;;;;;;;10.70;6.20;;;;;;;-4.79;100.00;99693.91;105474;1257;60536;-52
2023/11/30 03:44:42;;;;;;;12.60;5.90;;;;;;;-4.81;100.00;99696.86;105549;1257;60415;-52
2023/11/30 03:47:10;;;;;;;9.40;5.40;;;;;;;-4.84;100.00;99694.02;106072;1251;73822;-52
2023/11/30 03:49:37;;;;;;;8.00;5.00;;;;;;;-4.87;100.00;99695.23;105393;1256;67390;-53
2023/11/30 03:52:05;;;;;;;13.40;6.90;;;;;;;-4.89;100.00;99693.97;105308;1255;70886;-52
2023/11/30 03:54:32;;;;;;;10.00;4.50;;;;;;;-4.91;100.00;99697.61;105343;1254;61664;-53
2023/11/30 03:57:00;;;;;;;10.10;5.00;;;;;;;-4.91;100.00;99697.26;105282;1254;60501;-53
2023/11/30 03:59:27;;;;;;;12.30;4.50;;;;;;;-4.91;100.00;99697.26;106743;1251;73020;-53
2023/11/30 04:01:55;;;;;;;8.10;4.30;;;;;;;-4.91;100.00;99699.70;105441;1257;66928;-51
2023/11/30 04:04:23;;;;;;;7.90;4.20;;;;;;;-4.89;100.00;99701.15;106166;1251;72508;-53
2023/11/30 04:06:50;;;;;;;9.00;4.00;;;;;;;-4.88;100.00;99701.88;105471;1254;61294;-52
2023/11/30 04:09:18;;;;;;;7.80;3.60;;;;;;;-4.86;100.00;99706.10;105248;1258;60482;-52
2023/11/30 04:11:46;;;;;;;7.30;3.50;;;;;;;-4.85;100.00;99701.21;105907;1253;74832;-52
2023/11/30 04:14:13;;;;;;;10.60;4.60;;;;;;;-4.85;100.00;99710.14;105535;1257;69004;-53
2023/11/30 04:16:41;;;;;;;8.20;4.90;;;;;;;-4.85;100.00;99712.05;105398;1260;73010;-52
2023/11/30 04:19:09;;;;;;;8.90;4.70;;;;;;;-4.86;100.00;99715.38;105422;1253;60543;-53
2023/11/30 04:21:37;;;;;;;10.50;4.70;;;;;;;-4.88;100.00;99715.87;105469;1257;60750;-53
2023/11/30 04:24:05;;;;;;;8.90;4.70;;;;;;;-4.91;100.00;99717.92;105196;1251;74547;-52
2023/11/30 04:26:32;;;;;;;8.90;4.90;;;;;;;-4.92;100.00;99719.14;105664;1254;65652;-53
2023/11/30 04:28:59;;;;;;;9.90;5.20;;;;;;;-4.94;100.00;99720.88;105355;1257;73143;-52
2023/11/30 04:31:27;;;;;;;7.70;4.70;;;;;;;-4.96;100.00;99717.69;105688;1253;60524;-51
2023/11/30 04:33:55;;;;;;;10.20;4.80;;;;;;;-4.98;100.00;99717.31;105334;1267;59226;-53
2023/11/30 04:36:23;;;;;;;9.50;4.80;;;;;;;-4.99;100.00;99719.91;105291;1251;72528;-53
2023/11/30 04:38:50;;;;;;;6.50;4.30;;;;;;;-5.01;100.00;99721.29;105342;1253;67060;-52
2023/11/30 04:41:18;;;;;;;13.00;5.70;;;;;;;-5.02;100.00;99723.21;105510;1254;71889;-52
2023/11/30 04:43:46;;;;;;;10.50;5.00;;;;;;;-5.02;100.00;99722.16;109193;1253;62288;-53
2023/11/30 04:46:13;;;;;;;8.70;4.80;;;;;;;-5.00;100.00;99721.48;109115;1251;60135;-53
2023/11/30 04:48:40;;;;;;;12.80;4.40;;;;;;;-4.98;100.00;99722.39;109068;1253;74004;-53
2023/11/30 04:51:08;;;;;;;9.10;4.40;;;;;;;-4.95;100.00;99726.80;108326;1254;66092;-53
2023/11/30 04:53:36;;;;;;;7.20;4.40;;;;;;;-4.93;100.00;99723.85;105448;1254;72702;-53
2023/11/30 04:56:04;;;;;;;9.50;4.30;;;;;;;-4.91;100.00;99725.44;105435;1257;60428;-52
2023/11/30 04:58:32;;;;;;;9.20;6.20;;;;;;;-4.90;100.00;99728.27;105300;1253;60466;-53
2023/11/30 05:00:59;;;;;;;10.90;5.50;;;;;;;-4.88;100.00;99731.63;105321;1254;73543;-52
2023/11/30 05:03:27;;;;;;;8.90;4.70;;;;;;;-4.88;100.00;99736.52;105266;1257;67059;-52
2023/11/30 05:05:55;;;;;;;10.80;5.60;;;;;;;-4.89;100.00;99738.08;105282;1257;72694;-52
2023/11/30 05:08:22;;;;;;;10.30;5.20;;;;;;;-4.90;100.00;99738.23;105356;1257;60895;-52
2023/11/30 05:10:50;;;;;;;10.10;5.50;;;;;;;-4.92;100.00;99741.02;105314;1256;60381;-52
2023/11/30 05:13:17;;;;;;;9.30;5.90;;;;;;;-4.93;100.00;99740.64;105380;1254;72556;-52
2023/11/30 05:15:46;;;;;;;10.90;5.00;;;;;;;-4.97;100.00;99747.27;105302;1252;65762;-52
2023/11/30 05:18:13;;;;;;;11.50;6.50;;;;;;;-4.99;100.00;99746.34;109083;1253;73135;-53
2023/11/30 05:20:41;;;;;;;11.70;6.20;;;;;;;-5.02;100.00;99749.46;109195;1254;60486;-52
2023/11/30 05:23:09;;;;;;;13.40;6.00;;;;;;;-5.05;100.00;99751.86;107200;1252;59661;-52
2023/11/30 05:25:36;;;;;;;13.20;4.90;;;;;;;-5.08;100.00;99750.95;105265;1257;73918;-52
2023/11/30 05:28:05;;;;;;;12.30;6.50;;;;;;;-5.09;100.00;99756.52;105396;1257;68975;-52
2023/11/30 05:30:33;;;;;;;14.50;7.50;;;;;;;-5.09;100.00;99757.57;105239;1254;70141;-52
2023/11/30 05:33:00;;;;;;;14.60;7.70;;;;;;;-5.08;100.00;99760.03;107975;1251;60507;-53
2023/11/30 05:35:28;;;;;;;15.40;8.80;;;;;;;-5.06;100.00;99765.86;107227;1254;59823;-53
2023/11/30 05:37:55;;;;;;;17.40;8.50;;;;;;;-5.04;100.00;99767.11;104856;1252;74613;-53
2023/11/30 05:40:23;;;;;;;15.90;8.20;;;;;;;-5.02;100.00;99766.95;105073;1256;65861;-52
2023/11/30 05:42:51;;;;;;;16.70;8.10;;;;;;;-5.01;100.00;99766.27;105809;1253;71394;-53
2023/11/30 05:45:18;;;;;;;14.90;7.10;;;;;;;-5.00;100.00;99770.13;105463;1254;60607;-52
2023/11/30 05:47:46;;;;;;;15.10;7.60;;;;;;;-4.99;100.00;99773.99;105446;1251;60532;-52
2023/11/30 05:50:13;;;;;;;14.00;7.60;;;;;;;-4.98;100.00;99776.98;105335;1257;72651;-52
2023/11/30 05:52:41;;;;;;;11.50;6.20;;;;;;;-4.99;100.00;99781.35;105394;1251;66884;-54
2023/11/30 05:55:08;;;;;;;15.60;7.20;;;;;;;-4.99;100.00;99782.05;105320;1257;71431;-52
2023/11/30 05:57:36;;;;;;;17.70;8.90;;;;;;;-5.00;100.00;99786.92;106200;1252;60543;-53
2023/11/30 06:00:05;;;;;;;19.30;9.30;;;;;;;-5.01;100.00;99790.06;105568;1254;60544;-54
2023/11/30 06:02:39;;;;;;;33.80;15.30;;;;;;;-5.02;100.00;99794.96;105372;1256;73934;-52
2023/11/30 06:05:07;;;;;;;41.20;19.50;;;;;;;-5.03;100.00;99802.31;105584;1256;66879;-52
2023/11/30 06:07:35;;;;;;;36.50;17.60;;;;;;;-5.03;100.00;99803.00;106080;1254;72413;-52
2023/11/30 06:10:04;;;;;;;31.20;13.70;;;;;;;-5.02;100.00;99808.79;105545;1251;60491;-53
2023/11/30 06:12:31;;;;;;;23.50;11.00;;;;;;;-5.00;100.00;99810.73;105966;1251;60628;-52
2023/11/30 06:14:59;;;;;;;19.60;9.60;;;;;;;-4.97;100.00;99817.08;106178;1251;72219;-52
2023/11/30 06:17:26;;;;;;;14.00;7.80;;;;;;;-4.95;100.00;99815.54;105990;1251;66595;-52
2023/11/30 06:19:54;;;;;;;14.90;8.20;;;;;;;-4.90;100.00;99822.77;105442;1256;73121;-52
2023/11/30 06:22:21;;;;;;;16.80;8.50;;;;;;;-4.85;100.00;99822.69;105453;1256;61329;-53
2023/11/30 06:24:49;;;;;;;16.80;9.00;;;;;;;-4.80;100.00;99825.55;105595;1255;60409;-52
2023/11/30 06:27:16;;;;;;;13.90;8.50;;;;;;;-4.75;100.00;99835.41;105411;1257;72614;-52
2023/11/30 06:29:44;;;;;;;18.50;8.40;;;;;;;-4.70;100.00;99837.60;105407;1257;65637;-52
2023/11/30 06:32:11;;;;;;;16.60;9.10;;;;;;;-4.65;100.00;99839.93;105501;1253;73009;-52
2023/11/30 06:34:38;;;;;;;17.40;9.70;;;;;;;-4.62;100.00;99843.84;105214;1251;60601;-53
2023/11/30 06:37:06;;;;;;;16.00;8.80;;;;;;;-4.59;100.00;99847.56;105375;1252;60573;-52
2023/11/30 06:39:33;;;;;;;17.70;9.70;;;;;;;-4.55;100.00;99849.53;105488;1257;73851;-52
2023/11/30 06:42:01;;;;;;;18.80;9.70;;;;;;;-4.51;100.00;99851.70;105518;1257;64925;-51
2023/11/30 06:44:28;;;;;;;17.40;9.40;;;;;;;-4.50;100.00;99850.82;105482;1253;70060;-51
2023/11/30 06:46:55;;;;;;;20.10;9.70;;;;;;;-4.48;100.00;99850.85;105331;1257;60527;-52
2023/11/30 06:49:23;;;;;;;16.30;8.80;;;;;;;-4.45;100.00;99855.62;105260;1257;60494;-53
2023/11/30 06:51:50;;;;;;;18.30;9.10;;;;;;;-4.44;100.00;99856.70;105467;1256;73911;-52
2023/11/30 06:54:19;;;;;;;15.60;7.90;;;;;;;-4.41;100.00;99859.02;105059;1251;67716;-52
2023/11/30 06:56:47;;;;;;;16.20;8.30;;;;;;;-4.35;100.00;99859.43;108047;1253;71372;-53
2023/11/30 06:59:14;;;;;;;15.30;7.20;;;;;;;-4.29;100.00;99863.89;105019;1254;60428;-51
2023/11/30 07:01:42;;;;;;;14.30;7.40;;;;;;;-4.23;100.00;99867.64;107086;1251;58852;-52
2023/11/30 07:04:10;;;;;;;14.70;7.40;;;;;;;-4.16;100.00;99874.23;104948;1251;73654;-52
2023/11/30 07:06:37;;;;;;;13.90;7.80;;;;;;;-4.09;100.00;99882.20;104952;1250;65803;-52
2023/11/30 07:09:05;;;;;;;14.10;6.60;;;;;;;-4.02;100.00;99886.14;105155;1253;72656;-52
2023/11/30 07:11:33;;;;;;;17.30;8.50;;;;;;;-3.95;100.00;99886.92;105032;1256;60437;-52
2023/11/30 07:14:00;;;;;;;13.70;6.30;;;;;;;-3.89;100.00;99885.08;105081;1251;60591;-52
2023/11/30 07:16:28;;;;;;;12.00;6.20;;;;;;;-3.83;100.00;99885.84;104960;1256;73762;-52
2023/11/30 07:18:55;;;;;;;15.30;6.80;;;;;;;-3.77;100.00;99892.04;105146;1253;67148;-53
2023/11/30 07:21:26;;;;;;;14.80;7.20;;;;;;;-3.73;100.00;99901.02;105124;1253;70486;-51
2023/11/30 07:23:56;;;;;;;14.50;6.70;;;;;;;-3.69;100.00;99903.70;105595;1257;62378;-51
2023/11/30 07:26:23;;;;;;;8.70;4.90;;;;;;;-3.64;100.00;99908.66;105372;1251;60391;-50
2023/11/30 07:28:51;;;;;;;14.00;5.80;;;;;;;-3.58;100.00;99912.42;105166;1251;72367;-51
2023/11/30 07:31:19;;;;;;;14.10;6.60;;;;;;;-3.51;100.00;99914.42;105237;1257;65699;-52
2023/11/30 07:33:47;;;;;;;10.70;5.10;;;;;;;-3.42;100.00;99920.84;109118;1253;73320;-53
2023/11/30 07:36:15;;;;;;;14.10;4.90;;;;;;;-3.32;100.00;99926.02;105693;1253;60514;-52
2023/11/30 07:38:43;;;;;;;10.20;5.10;;;;;;;-3.22;100.00;99932.63;109101;1251;60310;-53
2023/11/30 07:41:11;;;;;;;10.00;5.10;;;;;;;-3.12;100.00;99932.54;109101;1251;73901;-53
2023/11/30 07:43:39;;;;;;;10.70;5.10;;;;;;;-3.03;100.00;99929.45;109056;1251;66979;-53
2023/11/30 07:46:07;;;;;;;14.90;5.60;;;;;;;-2.94;100.00;99936.91;109134;1250;71049;-53
2023/11/30 07:48:34;;;;;;;10.20;4.80;;;;;;;-2.88;100.00;99941.53;109074;1265;63530;-52
2023/11/30 07:51:02;;;;;;;11.50;6.00;;;;;;;-2.82;100.00;99944.58;109104;1251;60154;-53
2023/11/30 07:53:29;;;;;;;15.20;5.40;;;;;;;-2.77;100.00;99948.83;106361;1251;3577539;-53
2023/11/30 07:57:01;;;;;;;9.50;5.30;;;;;;;-2.66;100.00;100017.95;102123;1291;600478;-50
2023/11/30 07:59:29;;;;;;;10.90;5.10;;;;;;;-2.62;100.00;100016.58;107962;1271;60189;-51
2023/11/30 08:01:56;;;;;;;9.70;4.60;;;;;;;-2.57;100.00;100012.41;106588;1266;59367;-53
2023/11/30 08:04:24;;;;;;;6.30;3.40;;;;;;;-2.52;100.00;100010.69;104340;1267;72285;-51
2023/11/30 08:06:51;;;;;;;7.80;4.20;;;;;;;-2.47;100.00;100008.11;108051;1267;66936;-52
2023/11/30 08:09:20;;;;;;;8.90;3.40;;;;;;;-2.41;100.00;99999.89;107800;1267;72433;-52
2023/11/30 08:11:48;;;;;;;6.30;2.90;;;;;;;-2.33;100.00;100001.88;105635;1268;3346664;-52
2023/11/30 08:14:16;;;;;;;7.20;3.20;;;;;;;-2.24;100.00;100004.40;108215;1265;58835;-52
2023/11/30 08:16:43;;;;;;;8.80;4.50;;;;;;;-2.16;100.00;100006.40;108205;1265;69966;-51
2023/11/30 08:19:10;;;;;;;8.10;3.30;;;;;;;-2.09;100.00;100002.92;108093;1265;66947;-52
2023/11/30 08:21:40;;;;;;;7.00;3.00;;;;;;;-2.03;100.00;100004.90;104556;1266;73975;-52
2023/11/30 08:24:08;;;;;;;6.00;3.20;;;;;;;-1.97;100.00;100004.41;104376;1270;59648;-52
2023/11/30 08:26:36;;;;;;;7.10;3.50;;;;;;;-1.90;100.00;100003.56;105545;1266;59613;-51
2023/11/30 08:29:03;;;;;;;6.20;3.40;;;;;;;-1.83;100.00;100006.08;104428;1266;71787;-51
2023/11/30 08:31:33;;;;;;;5.00;2.60;;;;;;;-1.77;100.00;100004.87;104404;1266;65069;-52
2023/11/30 08:34:01;;;;;;;6.30;3.00;;;;;;;-1.72;100.00;100004.90;104357;1266;73002;-51
2023/11/30 08:36:28;;;;;;;6.80;2.90;;;;;;;-1.68;100.00;100012.67;104373;1266;59570;-51
2023/11/30 08:38:56;;;;;;;6.50;2.90;;;;;;;-1.61;100.00;100013.39;104385;1271;59563;-50
2023/11/30 08:41:23;;;;;;;6.00;3.10;;;;;;;-1.54;100.00;100010.61;105112;1254;71734;-51
2023/11/30 08:43:51;;;;;;;4.80;2.20;;;;;;;-1.45;100.00;100006.77;105160;1260;67036;-52
2023/11/30 08:46:18;;;;;;;6.60;3.20;;;;;;;-1.35;100.00;100001.36;105194;1259;72764;-52
2023/11/30 08:48:46;;;;;;;6.80;2.90;;;;;;;-1.27;100.00;100002.98;106270;1253;59910;-51
2023/11/30 08:51:14;;;;;;;7.70;3.20;;;;;;;-1.20;100.00;100002.46;105107;1254;60110;-51
2023/11/30 08:53:41;;;;;;;7.60;2.90;;;;;;;-1.13;100.00;100001.61;105490;1260;72171;-51
2023/11/30 08:56:10;;;;;;;5.90;2.10;;;;;;;-1.08;100.00;99999.33;105191;1260;66633;-50
2023/11/30 08:58:37;;;;;;;6.90;2.60;;;;;;;-1.02;100.00;99998.81;105625;1256;72530;-51
2023/11/30 09:01:06;;;;;;;6.70;2.20;;;;;;;-0.96;100.00;100000.59;104996;1259;60144;-51
2023/11/30 09:03:33;;;;;;;4.80;2.10;;;;;;;-0.93;100.00;100004.27;105173;1255;60295;-51
2023/11/30 09:06:01;;;;;;;8.30;2.90;;;;;;;-0.92;100.00;100001.11;105454;1260;73167;-52
2023/11/30 09:08:28;;;;;;;6.00;2.30;;;;;;;-0.89;100.00;99999.89;105369;1254;65779;-51
2023/11/30 09:10:56;;;;;;;5.70;2.10;;;;;;;-0.82;100.00;99999.02;105155;1261;70117;-51
2023/11/30 09:13:24;;;;;;;6.80;2.50;;;;;;;-0.74;100.00;99990.21;105363;1258;59631;-51
2023/11/30 09:15:51;;;;;;;7.70;3.10;;;;;;;-0.65;100.00;99987.94;105342;1254;61782;-50
2023/11/30 09:18:19;;;;;;;7.10;3.10;;;;;;;-0.57;100.00;99989.34;105359;1254;71877;-52
2023/11/30 09:20:47;;;;;;;5.20;2.60;;;;;;;-0.49;100.00;99984.05;105302;1258;66915;-51
2023/11/30 09:23:14;;;;;;;4.80;1.70;;;;;;;-0.43;100.00;99984.42;104923;1257;70512;-52
2023/11/30 09:25:42;;;;;;;2.40;1.40;;;;;;;-0.40;100.00;99988.28;104760;1255;59791;-51
2023/11/30 09:28:10;;;;;;;4.00;2.10;;;;;;;-0.39;100.00;99989.34;104754;1254;59981;-51
2023/11/30 09:30:37;;;;;;;4.70;1.80;;;;;;;-0.40;100.00;99985.45;105021;1254;71887;-53
2023/11/30 09:33:06;;;;;;;5.10;2.60;;;;;;;-0.39;100.00;99989.17;105742;1254;65821;-52
2023/11/30 09:35:34;;;;;;;5.50;2.40;;;;;;;-0.36;100.00;99990.94;106001;1255;71467;-51
2023/11/30 09:38:01;;;;;;;5.40;2.10;;;;;;;-0.32;100.00;99996.92;105099;1256;59675;-54
2023/11/30 09:40:29;;;;;;;4.30;1.60;;;;;;;-0.28;100.00;99996.94;105038;1253;60085;-52
2023/11/30 09:42:56;;;;;;;6.60;2.50;;;;;;;-0.23;100.00;99992.15;105072;1258;73345;-51
2023/11/30 09:45:24;;;;;;;6.60;2.80;;;;;;;-0.18;100.00;99993.23;104991;1261;66370;-52
2023/11/30 09:47:52;;;;;;;6.30;2.00;;;;;;;-0.14;100.00;99993.20;105776;1258;72721;-52
2023/11/30 09:50:19;;;;;;;5.20;3.00;;;;;;;-0.06;100.00;99995.30;105178;1254;59540;-53
2023/11/30 09:52:47;;;;;;;5.50;2.40;;;;;;;-0.02;100.00;99993.55;105150;1254;60594;-51
2023/11/30 09:55:15;;;;;;;4.90;1.90;;;;;;;0.02;100.00;99996.16;105102;1260;73130;-52
2023/11/30 09:57:42;;;;;;;10.00;2.40;;;;;;;0.06;100.00;99999.88;105173;1254;65628;-51
2023/11/30 10:00:11;;;;;;;8.00;2.70;;;;;;;0.08;100.00;99999.16;105191;1256;71532;-53
2023/11/30 10:02:49;;;;;;;4.90;2.10;;;;;;;0.08;100.00;100000.22;106370;1258;59361;-53
2023/11/30 10:05:17;;;;;;;5.40;2.60;;;;;;;0.05;100.00;100004.11;105164;1256;60093;-54
2023/11/30 10:07:44;;;;;;;4.80;1.70;;;;;;;0.02;100.00;99993.34;105102;1261;73583;-54
2023/11/30 10:10:14;;;;;;;5.40;2.20;;;;;;;0.01;100.00;99997.23;105147;1261;67487;-52
2023/11/30 10:12:41;;;;;;;6.60;1.90;;;;;;;0.05;100.00;99998.29;105705;1256;71478;-52
2023/11/30 10:15:09;;;;;;;3.00;1.40;;;;;;;0.08;100.00;100002.34;105441;1259;59633;-52
2023/11/30 10:17:37;;;;;;;3.80;1.50;;;;;;;0.13;100.00;100004.09;105232;1261;59621;-52
2023/11/30 10:20:06;;;;;;;5.20;1.90;;;;;;;0.19;100.00;100000.38;105456;1255;73117;-52
2023/11/30 10:22:33;;;;;;;3.00;1.50;;;;;;;0.23;100.00;100002.30;105021;1255;65400;-52
2023/11/30 10:25:01;;;;;;;2.80;1.60;;;;;;;0.26;100.00;100002.98;105080;1260;72742;-52
2023/11/30 10:27:29;;;;;;;3.80;1.40;;;;;;;0.28;100.00;100006.69;105140;1258;59713;-52
2023/11/30 10:29:59;;;;;;;4.30;2.10;;;;;;;0.32;100.00;100002.81;104984;1256;59772;-53
2023/11/30 10:32:27;;;;;;;2.70;1.50;;;;;;;0.37;100.00;100001.73;108371;1255;72426;-52
2023/11/30 10:34:56;;;;;;;2.90;1.20;;;;;;;0.40;100.00;100004.20;105097;1254;65858;-52
2023/11/30 10:37:26;;;;;;;1.90;1.20;;;;;;;0.43;100.00;100010.00;108796;1253;72644;-54
2023/11/30 10:39:58;;;;;;;2.80;1.20;;;;;;;0.44;100.00;100008.76;108825;1254;59066;-51
2023/11/30 10:42:26;;;;;;;1.80;1.00;;;;;;;0.46;100.00;100009.64;108869;1253;58358;-52
2023/11/30 10:44:54;;;;;;;3.70;0.90;;;;;;;0.47;100.00;100005.23;109044;1255;72178;-52
2023/11/30 10:47:21;;;;;;;2.00;0.90;;;;;;;0.48;100.00;100002.92;108891;1254;65889;-53
2023/11/30 10:49:48;;;;;;;3.40;1.20;;;;;;;0.51;100.00;100004.68;108881;1254;71676;-53
2023/11/30 10:52:16;;;;;;;2.20;1.00;;;;;;;0.53;100.00;100004.30;108867;1256;58897;-53
2023/11/30 10:55:11;;;;;;;2.70;1.50;;;;;;;0.56;100.00;100003.95;108718;1253;58874;-52
2023/11/30 10:57:42;;;;;;;;;;;;;;;0.60;100.00;100010.83;108766;1253;73468;-54
2023/11/30 11:00:14;;;;;;;3.30;1.50;;;;;;;0.63;100.00;100010.10;108943;1253;67215;-52
2023/11/30 11:02:43;;;;;;;7.40;2.10;;;;;;;0.68;100.00;100014.86;108791;1253;74221;-54
2023/11/30 11:05:13;;;;;;;2.60;1.40;;;;;;;0.71;100.00;100010.95;108874;1256;58634;-54
2023/11/30 11:07:45;;;;;;;2.70;1.30;;;;;;;0.74;100.00;100011.65;108896;1258;59324;-54
2023/11/30 11:10:26;;;;;;;3.20;1.70;;;;;;;0.75;100.00;100015.71;109006;1253;73135;-53
2023/11/30 11:12:56;;;;;;;3.50;1.40;;;;;;;0.73;100.00;100014.12;108911;1253;67051;-52
2023/11/30 11:15:28;;;;;;;3.10;1.40;;;;;;;0.72;100.00;100011.30;108830;1256;72702;-52